To NAV CANADA Home Page Login to a new session Search on AWWS site Feedback and Comments Disclaimer Vers la page française équivalente Tips FAQ What's new on the site To the Forecasts and Observations / NOTAM section To "File a Flight Plan" website Publications and other links Update of the User's profile FIC Telephone Numbers My Weather Data Folder Route Weather Data Regional Weather Data Local Weather Data To the Forecasts and Observations / NOTAM section
Request Generated 09/29/2016 at 23:46:52 UTC . Weather information available at that time is displayed.

METAR/TAF

CALGARY INTL/AB    

METAR CYYC 292300Z 11005KT 15SM FEW180 BKN200 BKN280 15/06 A3007 RMK
AC1CC4CI2 SLP204 DENSITY ALT 4200FT=
METAR CYYC 292200Z 12003KT 080V170 15SM FEW030 SCT190 BKN280 14/06
A3009 RMK SC2AC1CI3 SLP211 DENSITY ALT 4100FT=
METAR CYYC 292100Z 10007KT 030V130 15SM SCT032 BKN190 BKN280 15/05
A3010 RMK SC4AC2CI1 SLP214 DENSITY ALT 4100FT=

TAF CYYC 292338Z 3000/3024 11005KT P6SM BKN200
FM301000 VRB03KT P6SM BKN200 PROB30 3010/3017 1SM BR
FM302200 04008KT P6SM SCT040 BKN120
RMK NXT FCST BY 300300Z=
Your time UTC time
Weather data provided by Environment Canada and NAV CANADA